Time;durP1;ratioP1;P1;durP2;ratioP2;P2;SDS_P1;SDS_P2;PMS_P1;PMS_P2;Temp;Humidity;BMP_temperature;BMP_pressure;BME280_temperature;BME280_humidity;BME280_pressure;Samples;Min_cycle;Max_cycle;Signal;HPM_P1;HPM_P2
2022/07/20 00:01:23;;;;;;;32.97;21.90;;;29.70;45.50;;;;;;5070223;28;20262;-94
2022/07/20 00:03:50;;;;;;;30.67;21.73;;;29.60;45.80;;;;;;5070017;28;20242;-92
2022/07/20 00:06:17;;;;;;;29.03;21.57;;;29.60;46.10;;;;;;5054738;28;20200;-92
2022/07/20 00:11:30;;;;;;;31.33;23.20;;;29.40;46.20;;;;;;5051656;28;20203;-94
2022/07/20 00:14:00;;;;;;;27.53;21.33;;;29.30;46.90;;;;;;5054590;28;20212;-92
2022/07/20 00:16:31;;;;;;;31.80;22.13;;;29.10;47.30;;;;;;5051114;28;20282;-94
2022/07/20 00:18:58;;;;;;;33.67;20.90;;;29.10;47.70;;;;;;5058078;28;20199;-92
2022/07/20 00:21:26;;;;;;;35.37;21.90;;;29.00;47.00;;;;;;5070030;28;20231;-93
2022/07/20 00:23:54;;;;;;;30.87;21.83;;;28.90;47.30;;;;;;5069453;28;20254;-93
2022/07/20 00:26:21;;;;;;;31.90;22.30;;;28.80;47.50;;;;;;5070877;28;20207;-93
2022/07/20 00:28:50;;;;;;;29.47;20.90;;;28.80;47.60;;;;;;5067760;28;20741;-94
2022/07/20 00:31:19;;;;;;;34.07;21.63;;;28.70;47.60;;;;;;5070084;28;20207;-93
2022/07/20 00:33:48;;;;;;;27.03;20.07;;;28.70;47.80;;;;;;5049995;28;20266;-91
2022/07/20 00:36:15;;;;;;;26.93;20.00;;;28.60;47.60;;;;;;5057142;28;20202;-92
2022/07/20 00:38:43;;;;;;;31.67;21.07;;;28.60;47.80;;;;;;5058380;28;20200;-93
2022/07/20 00:41:12;;;;;;;29.17;20.20;;;28.60;48.40;;;;;;5051738;28;20247;-92
2022/07/20 00:43:59;;;;;;;30.63;20.63;;;28.60;48.30;;;;;;5067347;28;20216;-92
2022/07/20 00:46:29;;;;;;;28.67;19.73;;;28.50;49.30;;;;;;5059831;28;20287;-92
2022/07/20 00:48:56;;;;;;;23.23;18.57;;;28.50;48.50;;;;;;5059984;28;20203;-93
2022/07/20 00:51:24;;;;;;;28.50;19.03;;;28.50;48.30;;;;;;5061388;28;21471;-92
2022/07/20 00:53:52;;;;;;;29.20;19.93;;;28.40;48.20;;;;;;5055938;28;20983;-92
2022/07/20 00:56:20;;;;;;;25.43;18.20;;;28.40;48.90;;;;;;5067232;28;20540;-91
2022/07/20 00:58:47;;;;;;;23.13;18.40;;;28.40;48.80;;;;;;5070110;28;20211;-91
2022/07/20 01:01:15;;;;;;;30.67;20.00;;;28.40;48.70;;;;;;5065264;28;20222;-93
2022/07/20 01:03:45;;;;;;;21.80;18.20;;;28.40;48.80;;;;;;5051165;28;20231;-91
2022/07/20 01:06:13;;;;;;;25.03;19.37;;;28.30;49.00;;;;;;5069537;28;20231;-91
2022/07/20 01:08:44;;;;;;;23.70;17.73;;;28.30;48.70;;;;;;5067903;28;20207;-92
2022/07/20 01:11:12;;;;;;;23.97;18.70;;;28.30;48.80;;;;;;5069447;28;20674;-93
2022/07/20 01:13:40;;;;;;;27.70;17.73;;;28.30;49.30;;;;;;5056376;28;20205;-93
2022/07/20 01:16:07;;;;;;;23.50;17.57;;;28.20;49.00;;;;;;5063908;28;20298;-92
2022/07/20 01:18:34;;;;;;;24.33;16.53;;;28.20;49.20;;;;;;5059120;28;20199;-93
2022/07/20 01:21:04;;;;;;;21.07;16.17;;;28.20;49.30;;;;;;5070141;28;20267;-93
2022/07/20 01:23:32;;;;;;;23.90;17.47;;;28.20;49.60;;;;;;5054935;28;20652;-93
2022/07/20 01:26:00;;;;;;;22.63;16.13;;;28.20;49.60;;;;;;5070221;28;20200;-92
2022/07/20 01:28:31;;;;;;;26.77;16.40;;;28.20;49.50;;;;;;5066915;28;20250;-92
2022/07/20 01:30:59;;;;;;;24.13;16.57;;;28.10;49.80;;;;;;5053928;28;20298;-92
2022/07/20 01:33:26;;;;;;;22.57;15.97;;;28.10;49.60;;;;;;5059953;28;21042;-93
2022/07/20 01:35:53;;;;;;;22.83;15.87;;;28.10;49.50;;;;;;5069608;28;20290;-93
2022/07/20 01:38:22;;;;;;;27.20;16.33;;;28.10;49.40;;;;;;5066698;28;20230;-92
2022/07/20 01:40:49;;;;;;;20.87;15.57;;;28.10;49.80;;;;;;5065425;28;20334;-91
2022/07/20 01:43:16;;;;;;;22.97;15.53;;;28.10;49.70;;;;;;5068754;28;20211;-92
2022/07/20 01:45:44;;;;;;;25.37;15.63;;;28.10;49.80;;;;;;5063458;28;20652;-91
2022/07/20 01:48:12;;;;;;;20.73;14.60;;;28.10;49.80;;;;;;5069372;28;20607;-92
2022/07/20 01:50:42;;;;;;;21.07;14.07;;;28.10;49.80;;;;;;5080576;28;20197;-93
2022/07/20 01:53:09;;;;;;;21.50;13.90;;;28.10;50.30;;;;;;5073920;28;20242;-93
2022/07/20 01:55:39;;;;;;;17.83;12.77;;;28.10;50.00;;;;;;5058977;28;20299;-94
2022/07/20 01:58:06;;;;;;;25.03;13.97;;;28.00;50.30;;;;;;5067090;28;20579;-92
2022/07/20 02:00:34;;;;;;;19.30;13.40;;;28.00;50.10;;;;;;5067231;28;20281;-92
2022/07/20 02:03:07;;;;;;;23.00;13.67;;;28.00;50.90;;;;;;5068353;28;20204;-93
2022/07/20 02:05:37;;;;;;;22.03;12.77;;;27.90;50.50;;;;;;5054457;28;20228;-93
2022/07/20 02:08:04;;;;;;;20.77;12.63;;;27.90;50.30;;;;;;5061753;28;20683;-93
2022/07/20 02:10:31;;;;;;;20.20;12.50;;;27.90;50.20;;;;;;5075492;28;20222;-93
2022/07/20 02:13:00;;;;;;;17.43;13.17;;;27.90;50.50;;;;;;5057205;28;20192;-93
2022/07/20 02:18:14;;;;;;;17.97;11.67;;;27.80;50.70;;;;;;5053891;28;20202;-92
2022/07/20 02:20:43;;;;;;;16.03;12.23;;;27.80;50.20;;;;;;5082354;28;20211;-91
2022/07/20 02:23:11;;;;;;;17.60;11.77;;;27.70;50.60;;;;;;5077386;28;20935;-92
2022/07/20 02:25:44;;;;;;;16.03;11.10;;;27.70;50.60;;;;;;5093173;28;20203;-92
2022/07/20 02:28:19;;;;;;;17.60;12.27;;;27.70;51.20;;;;;;5087286;28;20204;-92
2022/07/20 02:30:49;;;;;;;14.37;11.27;;;27.70;51.30;;;;;;5091026;28;20285;-91
2022/07/20 02:33:16;;;;;;;16.70;11.43;;;27.60;51.10;;;;;;5074834;28;20199;-92
2022/07/20 02:35:43;;;;;;;21.43;12.30;;;27.60;51.00;;;;;;5069194;28;20247;-92
2022/07/20 02:38:10;;;;;;;13.87;10.80;;;27.60;51.00;;;;;;5083977;28;20251;-93
2022/07/20 02:40:37;;;;;;;18.73;11.00;;;27.50;51.00;;;;;;5076640;28;20269;-93
2022/07/20 02:43:05;;;;;;;23.97;12.90;;;27.50;51.00;;;;;;5087715;28;20273;-94
2022/07/20 02:45:34;;;;;;;19.80;11.53;;;27.50;51.70;;;;;;5061279;28;20224;-93
2022/07/20 02:48:03;;;;;;;16.03;10.53;;;27.50;51.10;;;;;;5056418;28;20207;-93
2022/07/20 02:50:33;;;;;;;18.40;11.03;;;27.40;51.00;;;;;;5069423;28;20321;-93
2022/07/20 02:53:00;;;;;;;17.07;10.70;;;27.50;51.10;;;;;;5054774;28;20969;-93
2022/07/20 02:55:28;;;;;;;17.70;11.20;;;27.50;51.10;;;;;;5070685;28;20281;-93
2022/07/20 02:58:00;;;;;;;19.53;11.00;;;27.50;51.20;;;;;;5071374;28;20298;-92
2022/07/20 03:00:28;;;;;;;19.90;11.17;;;27.50;51.70;;;;;;5055419;28;20233;-92
2022/07/20 03:02:58;;;;;;;18.23;11.40;;;27.50;51.50;;;;;;5071557;28;20211;-92
2022/07/20 03:05:25;;;;;;;17.03;10.57;;;27.40;51.50;;;;;;5069310;28;20207;-93
2022/07/20 03:07:52;;;;;;;17.53;10.83;;;27.40;51.40;;;;;;5068467;28;20264;-92
2022/07/20 03:10:21;;;;;;;22.37;12.67;;;27.40;51.40;;;;;;5069721;28;20743;-92
2022/07/20 03:12:49;;;;;;;16.70;10.13;;;27.30;51.40;;;;;;5067461;28;20302;-93
2022/07/20 03:15:18;;;;;;;15.93;10.03;;;27.30;51.80;;;;;;5065813;28;20282;-92
2022/07/20 03:17:47;;;;;;;21.67;11.57;;;27.30;51.30;;;;;;5059081;28;20209;-91
2022/07/20 03:20:19;;;;;;;21.57;9.83;;;27.20;51.30;;;;;;5063931;28;20206;-92
2022/07/20 03:22:46;;;;;;;20.30;11.13;;;27.20;51.70;;;;;;5054853;28;20200;-93
2022/07/20 03:25:13;;;;;;;14.20;9.73;;;27.20;51.60;;;;;;5071082;28;20273;-92
2022/07/20 03:27:40;;;;;;;18.43;9.87;;;27.10;51.50;;;;;;5054533;28;20271;-92
2022/07/20 03:30:09;;;;;;;16.70;11.17;;;27.00;51.60;;;;;;5051241;28;20240;-93
2022/07/20 03:32:38;;;;;;;17.67;10.43;;;27.00;51.90;;;;;;5069933;28;20243;-93
2022/07/20 03:35:06;;;;;;;20.43;10.70;;;27.00;51.90;;;;;;5067913;28;20227;-92
2022/07/20 03:37:34;;;;;;;16.83;11.30;;;27.00;52.00;;;;;;5073716;28;20203;-93
2022/07/20 03:40:04;;;;;;;16.23;10.93;;;26.90;51.90;;;;;;5062076;28;20278;-93
2022/07/20 03:42:31;;;;;;;12.60;9.63;;;26.90;52.10;;;;;;5064390;28;20634;-93
2022/07/20 03:44:59;;;;;;;15.93;10.37;;;26.80;52.00;;;;;;5072386;28;20230;-92
2022/07/20 03:47:28;;;;;;;16.50;11.37;;;26.70;52.20;;;;;;5071978;28;20243;-91
2022/07/20 03:49:56;;;;;;;16.90;9.77;;;26.70;52.30;;;;;;5074170;28;20203;-93
2022/07/20 03:52:24;;;;;;;22.80;12.67;;;26.70;52.10;;;;;;5068742;28;20212;-94
2022/07/20 03:54:52;;;;;;;20.27;12.63;;;26.70;52.40;;;;;;5074675;28;20337;-92
2022/07/20 03:57:19;;;;;;;14.70;10.43;;;26.60;52.60;;;;;;5082506;28;20207;-93
2022/07/20 03:59:46;;;;;;;17.10;10.03;;;26.60;52.50;;;;;;5082389;28;20475;-93
2022/07/20 04:02:13;;;;;;;14.33;9.93;;;26.60;52.70;;;;;;5072971;28;20196;-91
2022/07/20 04:04:40;;;;;;;19.67;10.93;;;26.60;52.90;;;;;;5069769;28;20199;-93
2022/07/20 04:07:08;;;;;;;13.93;9.90;;;26.50;52.90;;;;;;5059247;28;20207;-92
2022/07/20 04:09:47;;;;;;;21.30;11.90;;;26.50;52.90;;;;;;5074240;28;20215;-92
2022/07/20 04:12:18;;;;;;;17.40;11.63;;;26.50;53.00;;;;;;5082615;28;20202;-93
2022/07/20 04:14:47;;;;;;;20.23;11.67;;;26.50;53.20;;;;;;5084693;28;20227;-92
2022/07/20 04:17:15;;;;;;;18.37;11.30;;;26.50;53.40;;;;;;5081993;28;20238;-93
2022/07/20 04:19:49;;;;;;;14.43;9.60;;;26.50;53.20;;;;;;5058986;28;20259;-92
2022/07/20 04:22:30;;;;;;;16.00;11.43;;;26.50;53.60;;;;;;5062313;28;20200;-93
2022/07/20 04:24:57;;;;;;;17.77;10.57;;;26.50;54.40;;;;;;5058328;28;20282;-92
2022/07/20 04:27:29;;;;;;;14.53;10.30;;;26.50;53.30;;;;;;5053411;28;20223;-92
2022/07/20 04:29:57;;;;;;;16.83;10.23;;;26.40;53.40;;;;;;5054022;28;20711;-92
2022/07/20 04:32:24;;;;;;;15.60;10.90;;;26.40;53.40;;;;;;5056748;28;20269;-91
2022/07/20 04:34:52;;;;;;;15.87;10.63;;;26.40;53.50;;;;;;5070133;28;20640;-92
2022/07/20 04:37:19;;;;;;;17.17;11.53;;;26.40;53.60;;;;;;5070234;28;20196;-91
2022/07/20 04:39:48;;;;;;;17.40;11.00;;;26.30;53.50;;;;;;5068732;28;20261;-92
2022/07/20 04:42:15;;;;;;;16.67;10.50;;;26.30;53.80;;;;;;5069786;28;20199;-91
2022/07/20 04:44:44;;;;;;;16.93;11.17;;;26.30;53.80;;;;;;5049750;28;20314;-91
2022/07/20 04:47:12;;;;;;;17.07;10.17;;;26.30;54.00;;;;;;5070921;28;20207;-91
2022/07/20 04:49:41;;;;;;;18.27;11.27;;;26.20;54.00;;;;;;5073635;28;20234;-92
2022/07/20 04:52:09;;;;;;;25.87;13.03;;;26.20;54.00;;;;;;5066533;28;20290;-91
2022/07/20 04:54:38;;;;;;;17.77;10.93;;;26.20;54.20;;;;;;5070479;28;20293;-92
2022/07/20 04:57:05;;;;;;;18.23;12.33;;;26.20;54.10;;;;;;5067623;28;20285;-91
2022/07/20 04:59:33;;;;;;;20.07;11.90;;;26.20;54.40;;;;;;5068593;28;20291;-91
2022/07/20 05:02:04;;;;;;;18.97;11.43;;;26.20;54.50;;;;;;5049751;28;20200;-91
2022/07/20 05:04:31;;;;;;;19.10;11.63;;;26.10;54.50;;;;;;5070403;28;20242;-91
2022/07/20 05:06:59;;;;;;;15.70;11.30;;;26.10;54.30;;;;;;5068715;28;20195;-91
2022/07/20 05:09:26;;;;;;;16.60;11.60;;;26.00;54.50;;;;;;5069698;28;20203;-90
2022/07/20 05:11:53;;;;;;;22.10;13.00;;;26.10;54.70;;;;;;5069934;28;20231;-91
2022/07/20 05:14:20;;;;;;;15.83;10.60;;;26.00;54.70;;;;;;5072460;28;20703;-90
2022/07/20 05:16:47;;;;;;;14.00;10.40;;;26.00;54.60;;;;;;5068106;28;20223;-91
2022/07/20 05:19:15;;;;;;;22.60;14.20;;;25.90;54.80;;;;;;5067004;28;20239;-90
2022/07/20 05:21:44;;;;;;;16.67;11.73;;;25.90;55.00;;;;;;5067656;28;20231;-91
2022/07/20 05:24:11;;;;;;;19.87;12.30;;;25.90;54.90;;;;;;5060806;28;20202;-89
2022/07/20 05:26:43;;;;;;;15.73;10.87;;;25.90;54.80;;;;;;5064574;28;20204;-90
2022/07/20 05:29:10;;;;;;;19.67;11.60;;;25.90;55.10;;;;;;5049512;28;20889;-90
2022/07/20 05:31:38;;;;;;;24.43;14.53;;;25.90;55.00;;;;;;5058281;28;20609;-90
2022/07/20 05:34:08;;;;;;;17.83;11.17;;;26.00;55.10;;;;;;5066861;28;20274;-91
2022/07/20 05:36:41;;;;;;;15.47;10.90;;;26.00;55.20;;;;;;5069613;28;20652;-92
2022/07/20 05:39:09;;;;;;;20.33;11.83;;;25.90;55.40;;;;;;5073820;28;20238;-91
2022/07/20 05:41:36;;;;;;;16.50;11.63;;;26.00;55.10;;;;;;5071391;28;20690;-91
2022/07/20 05:44:04;;;;;;;15.33;11.33;;;26.00;55.30;;;;;;5074625;28;20293;-93
2022/07/20 05:46:31;;;;;;;21.57;12.57;;;26.00;55.30;;;;;;5060867;28;20251;-94
2022/07/20 05:49:00;;;;;;;13.37;10.53;;;26.10;55.30;;;;;;5064976;28;20199;-92
2022/07/20 05:51:28;;;;;;;16.23;10.67;;;26.00;55.40;;;;;;5073029;28;20215;-91
2022/07/20 05:53:57;;;;;;;24.33;12.10;;;26.00;56.00;;;;;;5066257;28;20327;-91
2022/07/20 05:56:24;;;;;;;15.80;10.30;;;26.00;55.40;;;;;;5069001;28;20230;-93
2022/07/20 05:58:51;;;;;;;17.83;11.33;;;26.00;55.10;;;;;;5073499;28;20199;-94
2022/07/20 06:01:20;;;;;;;14.70;9.87;;;26.00;54.90;;;;;;5069259;28;20308;-93
2022/07/20 06:03:47;;;;;;;18.47;9.53;;;26.10;54.70;;;;;;5062307;28;20203;-90
2022/07/20 06:06:15;;;;;;;18.03;9.80;;;26.10;54.50;;;;;;5069324;28;20199;-93
2022/07/20 06:08:44;;;;;;;11.73;8.47;;;26.10;54.30;;;;;;5071645;28;20635;-93
2022/07/20 06:11:19;;;;;;;10.33;7.03;;;26.10;54.30;;;;;;5066364;28;20208;-92
2022/07/20 06:13:46;;;;;;;17.20;9.37;;;26.10;54.10;;;;;;5063308;28;20231;-91
2022/07/20 06:16:18;;;;;;;12.10;8.00;;;26.10;54.00;;;;;;5062839;28;20212;-91
2022/07/20 06:18:46;;;;;;;19.03;9.47;;;26.10;54.10;;;;;;5065547;28;20210;-93
2022/07/20 06:21:14;;;;;;;13.87;7.00;;;26.10;54.00;;;;;;5067041;28;20243;-92
2022/07/20 06:23:43;;;;;;;14.83;8.20;;;26.10;54.00;;;;;;5061528;28;20196;-92
2022/07/20 06:26:10;;;;;;;13.60;7.43;;;26.10;54.10;;;;;;5064560;28;20200;-93
2022/07/20 06:28:40;;;;;;;16.43;8.10;;;26.10;54.20;;;;;;5068756;28;20225;-93
2022/07/20 06:31:09;;;;;;;10.37;6.93;;;26.10;54.30;;;;;;5045694;28;20204;-93
2022/07/20 06:33:36;;;;;;;15.13;7.90;;;26.10;54.90;;;;;;5067818;28;20196;-93
2022/07/20 06:36:05;;;;;;;15.90;8.17;;;26.10;54.30;;;;;;5060795;28;20219;-92
2022/07/20 06:38:34;;;;;;;16.10;7.97;;;26.10;54.40;;;;;;5061161;28;20235;-92
2022/07/20 06:41:03;;;;;;;13.57;7.60;;;26.00;54.60;;;;;;5062859;28;20763;-92
2022/07/20 06:43:30;;;;;;;14.60;8.57;;;26.00;55.10;;;;;;5067203;28;20207;-93
2022/07/20 06:45:59;;;;;;;13.93;7.80;;;26.00;55.10;;;;;;5060317;28;20224;-92
2022/07/20 06:48:26;;;;;;;14.50;8.30;;;25.90;56.00;;;;;;5065712;28;20191;-93
2022/07/20 06:50:54;;;;;;;17.47;8.83;;;25.90;56.30;;;;;;5080411;28;20213;-95
2022/07/20 06:53:21;;;;;;;24.63;11.27;;;25.90;56.10;;;;;;5081143;28;20302;-93
2022/07/20 06:55:52;;;;;;;15.17;8.03;;;25.80;56.20;;;;;;5081240;28;20196;-95
2022/07/20 06:58:19;;;;;;;22.03;10.50;;;25.80;56.60;;;;;;5074859;28;20250;-95
2022/07/20 07:00:47;;;;;;;16.80;8.63;;;25.80;56.40;;;;;;5060327;28;20208;-92
2022/07/20 07:03:16;;;;;;;16.67;8.33;;;25.80;56.60;;;;;;5061602;28;20726;-95
2022/07/20 07:05:49;;;;;;;16.83;9.03;;;25.80;56.70;;;;;;5068491;28;20253;-94
2022/07/20 07:08:16;;;;;;;14.53;8.40;;;25.80;57.20;;;;;;5054491;28;20192;-93
2022/07/20 07:10:44;;;;;;;13.93;7.83;;;25.70;57.10;;;;;;5069101;28;20314;-90
2022/07/20 07:13:11;;;;;;;15.40;7.90;;;25.70;57.10;;;;;;5068545;28;20319;-91
2022/07/20 07:15:38;;;;;;;12.90;7.93;;;25.70;57.60;;;;;;5069613;28;20290;-89
2022/07/20 07:18:05;;;;;;;14.77;8.57;;;25.70;56.90;;;;;;5068958;28;20192;-91
2022/07/20 07:20:34;;;;;;;18.60;9.80;;;25.70;57.10;;;;;;5061581;28;20204;-92
2022/07/20 07:23:01;;;;;;;14.70;8.20;;;25.70;57.40;;;;;;5058941;28;20545;-91
2022/07/20 07:25:28;;;;;;;19.27;9.70;;;25.70;57.30;;;;;;5057614;28;20219;-92
2022/07/20 07:27:55;;;;;;;20.70;9.93;;;25.70;57.30;;;;;;5063833;28;20228;-90
2022/07/20 07:30:22;;;;;;;14.17;8.20;;;25.70;57.40;;;;;;5068841;28;20648;-91
2022/07/20 07:32:49;;;;;;;14.43;8.10;;;25.80;57.40;;;;;;5063397;28;20227;-92
2022/07/20 07:35:17;;;;;;;13.37;7.90;;;25.80;57.30;;;;;;5069107;28;20796;-91
2022/07/20 07:37:46;;;;;;;18.63;9.13;;;25.80;57.70;;;;;;5067118;28;20302;-91
2022/07/20 07:40:13;;;;;;;18.77;9.80;;;25.90;57.70;;;;;;5060573;28;20659;-91
2022/07/20 07:42:41;;;;;;;18.40;9.47;;;25.90;57.70;;;;;;5060772;28;20219;-92
2022/07/20 07:45:09;;;;;;;13.70;8.27;;;25.90;57.90;;;;;;5063409;28;20228;-92
2022/07/20 07:47:37;;;;;;;15.83;8.37;;;26.00;58.20;;;;;;5058981;28;20201;-91
2022/07/20 07:50:06;;;;;;;13.43;7.90;;;26.00;58.60;;;;;;5065060;28;20641;-92
2022/07/20 07:52:33;;;;;;;17.10;8.90;;;26.00;58.20;;;;;;5065272;28;20204;-92
2022/07/20 07:55:02;;;;;;;14.20;8.47;;;26.10;58.10;;;;;;5062895;28;20207;-91
2022/07/20 07:57:29;;;;;;;16.87;9.50;;;26.10;58.60;;;;;;5049625;28;20235;-91
2022/07/20 07:59:57;;;;;;;10.57;7.50;;;26.10;58.50;;;;;;5058274;28;20195;-93
2022/07/20 08:02:24;;;;;;;15.30;9.20;;;26.10;58.60;;;;;;5070458;28;20200;-90
2022/07/20 08:04:52;;;;;;;13.77;8.37;;;26.10;58.50;;;;;;5061034;28;20281;-93
2022/07/20 08:07:19;;;;;;;13.50;8.60;;;26.10;58.30;;;;;;5062139;28;20281;-92
2022/07/20 08:09:46;;;;;;;22.93;10.70;;;26.00;58.20;;;;;;5068783;28;20188;-92
2022/07/20 08:12:14;;;;;;;16.43;9.57;;;26.00;58.30;;;;;;5059654;28;20203;-93
2022/07/20 08:14:41;;;;;;;14.73;8.57;;;26.00;58.70;;;;;;5081032;28;20210;-93
2022/07/20 08:17:08;;;;;;;16.67;8.17;;;26.00;58.60;;;;;;5080907;28;20238;-93
2022/07/20 08:19:35;;;;;;;18.03;9.30;;;25.90;58.50;;;;;;5064646;28;20267;-92
2022/07/20 08:22:02;;;;;;;15.17;8.20;;;25.90;58.40;;;;;;5065621;28;20663;-91
2022/07/20 08:24:33;;;;;;;14.47;8.53;;;25.90;58.60;;;;;;5079250;28;20212;-91
2022/07/20 08:27:00;;;;;;;15.23;8.83;;;25.80;59.10;;;;;;5080418;28;20192;-92
2022/07/20 08:29:29;;;;;;;13.47;8.37;;;25.80;59.00;;;;;;5077720;28;20231;-91
2022/07/20 08:31:56;;;;;;;17.70;10.03;;;25.80;59.40;;;;;;5074518;28;20207;-91
2022/07/20 08:34:23;;;;;;;14.33;8.60;;;25.70;59.30;;;;;;5069364;28;20656;-92
2022/07/20 08:36:53;;;;;;;11.73;7.17;;;25.70;59.20;;;;;;5068289;28;20238;-92
2022/07/20 08:39:21;;;;;;;13.33;8.37;;;25.70;60.20;;;;;;5068752;28;20206;-93
2022/07/20 08:41:48;;;;;;;17.67;9.37;;;25.70;60.10;;;;;;5056401;28;20228;-90
2022/07/20 08:44:15;;;;;;;14.60;7.93;;;25.70;60.10;;;;;;5060331;28;20238;-92
2022/07/20 08:46:45;;;;;;;14.43;8.47;;;25.70;60.30;;;;;;5069067;28;20241;-93
2022/07/20 08:49:14;;;;;;;15.80;9.07;;;25.60;60.20;;;;;;5059926;28;20224;-91
2022/07/20 08:51:41;;;;;;;23.33;10.50;;;25.60;60.70;;;;;;5050150;28;20208;-89
2022/07/20 08:54:09;;;;;;;14.33;8.87;;;25.60;60.20;;;;;;5060669;28;20204;-91
2022/07/20 08:56:36;;;;;;;17.67;8.33;;;25.60;60.30;;;;;;5068013;28;20231;-93
2022/07/20 08:59:03;;;;;;;12.50;8.30;;;25.60;60.00;;;;;;5067688;28;20294;-91
2022/07/20 09:01:30;;;;;;;16.93;9.13;;;25.60;60.00;;;;;;5067783;28;20209;-91
2022/07/20 09:04:10;;;;;;;15.37;8.50;;;25.60;60.50;;;;;;5068110;28;20743;-91
2022/07/20 09:06:46;;;;;;;14.27;8.00;;;25.50;61.70;;;;;;5053700;28;20293;-93
2022/07/20 09:09:13;;;;;;;15.23;8.90;;;25.60;61.30;;;;;;5048174;28;20203;-94
2022/07/20 09:11:41;;;;;;;15.70;9.50;;;25.60;60.80;;;;;;5059519;28;20230;-93
2022/07/20 09:14:08;;;;;;;15.30;8.60;;;25.60;61.10;;;;;;5068139;28;20296;-90
2022/07/20 09:16:42;;;;;;;15.20;9.17;;;25.60;61.30;;;;;;5067572;28;20223;-91
2022/07/20 09:19:11;;;;;;;11.70;7.80;;;25.50;61.00;;;;;;5067765;28;20211;-91
2022/07/20 09:21:38;;;;;;;13.50;7.80;;;25.50;61.20;;;;;;5066786;28;20321;-91
2022/07/20 09:24:07;;;;;;;15.43;9.50;;;25.50;61.10;;;;;;5065550;28;20243;-91
2022/07/20 09:26:35;;;;;;;16.93;9.40;;;25.60;61.70;;;;;;5067437;28;20207;-91
2022/07/20 09:29:05;;;;;;;13.97;8.33;;;25.50;61.20;;;;;;5068389;28;20241;-91
2022/07/20 09:31:34;;;;;;;19.43;10.63;;;25.60;61.20;;;;;;5066523;28;20203;-91
2022/07/20 09:34:23;;;;;;;15.07;8.90;;;25.60;61.20;;;;;;5067108;28;20249;-91
2022/07/20 09:36:50;;;;;;;15.27;9.30;;;25.60;61.30;;;;;;5066411;28;20935;-92
2022/07/20 09:39:18;;;;;;;17.50;9.63;;;25.60;61.90;;;;;;5065372;28;20203;-91
2022/07/20 09:41:52;;;;;;;21.63;10.93;;;25.60;61.30;;;;;;5063805;28;20203;-92
2022/07/20 09:44:24;;;;;;;12.30;8.27;;;25.50;61.90;;;;;;5067065;28;20298;-94
2022/07/20 09:46:52;;;;;;;22.77;11.93;;;25.60;61.50;;;;;;5061201;28;20576;-91
2022/07/20 09:49:30;;;;;;;22.67;10.80;;;25.50;61.20;;;;;;5053412;28;20263;-90
2022/07/20 09:52:00;;;;;;;17.20;9.47;;;25.50;61.60;;;;;;5047323;28;20199;-91
2022/07/20 09:54:27;;;;;;;16.77;9.37;;;25.50;62.20;;;;;;5056815;28;20721;-90
2022/07/20 09:56:55;;;;;;;20.93;9.90;;;25.50;61.20;;;;;;5067029;28;20677;-91
2022/07/20 09:59:22;;;;;;;17.87;9.33;;;25.50;61.40;;;;;;5066542;28;20196;-90
2022/07/20 10:01:51;;;;;;;15.00;8.87;;;25.50;61.40;;;;;;5065771;28;20203;-90
2022/07/20 10:04:21;;;;;;;14.10;9.23;;;25.50;62.00;;;;;;5065519;28;20291;-90
2022/07/20 10:06:50;;;;;;;18.00;9.43;;;25.50;61.80;;;;;;5065654;28;20203;-92
2022/07/20 10:09:20;;;;;;;17.23;9.47;;;25.50;61.90;;;;;;5052819;28;20208;-91
2022/07/20 10:11:48;;;;;;;16.73;9.33;;;25.60;62.10;;;;;;5062143;28;20196;-91
2022/07/20 10:14:18;;;;;;;18.37;10.70;;;25.60;62.00;;;;;;5054288;28;20203;-92
2022/07/20 10:16:49;;;;;;;16.87;9.77;;;25.60;62.20;;;;;;5054334;28;20734;-91
2022/07/20 10:19:16;;;;;;;13.27;8.10;;;25.70;62.40;;;;;;5047654;28;20290;-92
2022/07/20 10:21:50;;;;;;;15.97;8.60;;;25.70;61.90;;;;;;5054243;28;20868;-90
2022/07/20 10:24:25;;;;;;;17.63;9.50;;;25.80;62.20;;;;;;5070036;28;20206;-91
2022/07/20 10:26:55;;;;;;;13.70;8.57;;;25.80;61.90;;;;;;5061249;28;20202;-93
2022/07/20 10:29:28;;;;;;;14.30;8.00;;;25.90;62.20;;;;;;5052026;28;20302;-92
2022/07/20 10:31:57;;;;;;;13.30;9.03;;;26.00;62.30;;;;;;5062444;28;20207;-90
2022/07/20 10:34:35;;;;;;;17.87;9.13;;;26.10;62.30;;;;;;5064930;28;20212;-92
2022/07/20 10:37:30;;;;;;;14.23;8.17;;;26.20;61.90;;;;;;5073216;28;20227;-92
2022/07/20 10:40:13;;;;;;;16.53;8.73;;;26.30;61.80;;;;;;5053439;28;20278;-92
2022/07/20 10:42:41;;;;;;;14.40;8.43;;;26.40;61.40;;;;;;5058101;28;20318;-91
2022/07/20 10:45:33;;;;;;;13.27;8.00;;;26.50;61.20;;;;;;5070395;28;20203;-91
2022/07/20 10:48:17;;;;;;;16.63;8.80;;;26.50;61.80;;;;;;5057267;28;20309;-91
2022/07/20 10:50:48;;;;;;;13.30;8.43;;;26.60;60.80;;;;;;5066577;28;20254;-91
2022/07/20 10:53:36;;;;;;;13.70;8.13;;;26.60;60.60;;;;;;5064531;28;20665;-91
2022/07/20 10:56:06;;;;;;;13.63;7.77;;;26.70;60.70;;;;;;5073478;28;20208;-93
2022/07/20 10:58:35;;;;;;;14.93;8.83;;;26.70;60.20;;;;;;5074125;28;20231;-92
2022/07/20 11:01:05;;;;;;;19.50;9.20;;;26.70;60.20;;;;;;5070475;28;20214;-92
2022/07/20 11:03:37;;;;;;;12.47;7.63;;;26.80;60.90;;;;;;5078628;28;20210;-90
2022/07/20 11:06:10;;;;;;;12.10;7.07;;;26.80;60.30;;;;;;5089333;28;20192;-91
2022/07/20 11:08:40;;;;;;;14.77;8.67;;;26.80;59.90;;;;;;5083045;28;20670;-91
2022/07/20 11:11:08;;;;;;;23.03;10.80;;;26.90;59.60;;;;;;5078315;28;20209;-92
2022/07/20 11:13:35;;;;;;;14.47;7.47;;;26.90;59.30;;;;;;5078692;28;20195;-91
2022/07/20 11:16:04;;;;;;;14.50;7.73;;;26.80;59.10;;;;;;5066418;28;20223;-92
2022/07/20 11:18:33;;;;;;;12.07;7.03;;;26.80;58.90;;;;;;5077026;28;20262;-92
2022/07/20 11:21:03;;;;;;;13.73;7.33;;;26.70;59.00;;;;;;5069186;28;20642;-93
2022/07/20 11:23:42;;;;;;;14.20;8.63;;;26.70;59.10;;;;;;5078392;28;20231;-91
2022/07/20 11:26:10;;;;;;;14.47;8.47;;;26.70;59.40;;;;;;5065274;28;20204;-91
2022/07/20 11:28:39;;;;;;;13.97;8.60;;;26.60;59.50;;;;;;5053652;28;20205;-91
2022/07/20 11:31:08;;;;;;;15.33;7.73;;;26.60;59.60;;;;;;5063001;28;20204;-92
2022/07/20 11:33:40;;;;;;;10.33;6.73;;;26.60;59.50;;;;;;5071068;28;20696;-91
2022/07/20 11:36:09;;;;;;;18.97;9.53;;;26.60;59.70;;;;;;5067169;28;20231;-90
2022/07/20 11:38:40;;;;;;;16.17;7.60;;;26.60;59.90;;;;;;5068205;28;20247;-91
2022/07/20 11:41:11;;;;;;;17.80;8.33;;;26.60;59.80;;;;;;5054315;28;20215;-91
2022/07/20 11:43:38;;;;;;;16.77;8.40;;;26.70;59.70;;;;;;5064966;28;20354;-90
2022/07/20 11:46:15;;;;;;;16.23;7.47;;;26.80;59.60;;;;;;5079394;28;20196;-90
2022/07/20 11:48:43;;;;;;;18.07;9.07;;;26.80;59.60;;;;;;5088446;28;20210;-92
2022/07/20 11:51:18;;;;;;;12.47;6.77;;;26.90;60.20;;;;;;5083779;28;20200;-93
2022/07/20 11:53:46;;;;;;;13.33;6.43;;;26.90;59.20;;;;;;5082194;28;20199;-92
2022/07/20 11:56:15;;;;;;;12.97;7.20;;;27.10;59.70;;;;;;5079469;28;20679;-91
2022/07/20 11:58:44;;;;;;;13.87;6.67;;;27.20;59.50;;;;;;5067433;28;20265;-91
2022/07/20 12:01:13;;;;;;;13.80;7.63;;;27.30;59.60;;;;;;5067320;28;20203;-91
2022/07/20 12:03:43;;;;;;;12.07;6.90;;;27.40;59.30;;;;;;5068091;28;20683;-91
2022/07/20 12:06:15;;;;;;;13.03;6.50;;;27.60;59.60;;;;;;5065680;28;20210;-91
2022/07/20 12:08:43;;;;;;;16.77;9.43;;;27.70;58.90;;;;;;5067269;28;20290;-92
2022/07/20 12:11:14;;;;;;;14.73;7.37;;;27.90;58.70;;;;;;5066247;28;20196;-92
2022/07/20 12:13:47;;;;;;;15.40;7.43;;;28.00;58.70;;;;;;5066810;28;20275;-92
2022/07/20 12:16:15;;;;;;;16.60;9.20;;;28.20;58.30;;;;;;5062198;28;20204;-91
2022/07/20 12:18:45;;;;;;;17.13;8.80;;;28.30;58.30;;;;;;5062506;28;20267;-92
2022/07/20 12:21:15;;;;;;;14.93;8.47;;;28.50;58.20;;;;;;5065879;28;20290;-92
2022/07/20 12:23:44;;;;;;;20.70;10.63;;;28.60;57.90;;;;;;5061376;28;20219;-89
2022/07/20 12:26:37;;;;;;;17.93;9.13;;;28.80;57.50;;;;;;5058420;28;20289;-91
2022/07/20 12:29:19;;;;;;;11.17;6.97;;;28.90;57.30;;;;;;5045837;28;20243;-90
2022/07/20 12:31:46;;;;;;;18.73;10.23;;;29.10;57.10;;;;;;5061528;28;20282;-90
2022/07/20 12:34:15;;;;;;;25.63;12.50;;;29.20;57.20;;;;;;5061903;28;20570;-92
2022/07/20 12:36:44;;;;;;;14.27;9.53;;;29.40;56.70;;;;;;5066355;28;20207;-93
2022/07/20 12:39:13;;;;;;;14.93;9.43;;;29.50;56.60;;;;;;5062847;28;20318;-92
2022/07/20 12:41:45;;;;;;;17.40;9.73;;;29.70;56.30;;;;;;5061829;28;20241;-90
2022/07/20 12:44:31;;;;;;;19.10;10.20;;;29.70;55.70;;;;;;5078075;28;20211;-90
2022/07/20 12:46:58;;;;;;;16.67;9.77;;;29.80;55.20;;;;;;5087856;28;20468;-91
2022/07/20 12:49:30;;;;;;;12.77;9.20;;;29.90;55.50;;;;;;5082018;28;20203;-91